sensor_id;sensor_type;location;lat;lon;timestamp;P1;durP1;ratioP1;P2;durP2;ratioP2
68993;SDS011;56054;50.968;5.816;2022-07-24T00:01:28;8.38;;;4.20;;
68993;SDS011;56054;50.968;5.816;2022-07-24T00:04:41;9.98;;;4.07;;
68993;SDS011;56054;50.968;5.816;2022-07-24T00:07:50;4.90;;;3.35;;
68993;SDS011;56054;50.968;5.816;2022-07-24T00:10:57;7.05;;;4.10;;
68993;SDS011;56054;50.968;5.816;2022-07-24T00:14:04;9.65;;;4.22;;
68993;SDS011;56054;50.968;5.816;2022-07-24T00:17:16;8.88;;;4.97;;
68993;SDS011;56054;50.968;5.816;2022-07-24T00:20:23;9.25;;;4.35;;
68993;SDS011;56054;50.968;5.816;2022-07-24T00:23:35;7.45;;;4.10;;
68993;SDS011;56054;50.968;5.816;2022-07-24T00:26:42;7.30;;;3.97;;
68993;SDS011;56054;50.968;5.816;2022-07-24T00:29:54;4.93;;;3.80;;
68993;SDS011;56054;50.968;5.816;2022-07-24T00:33:15;9.18;;;4.60;;
68993;SDS011;56054;50.968;5.816;2022-07-24T00:39:59;6.65;;;4.00;;
68993;SDS011;56054;50.968;5.816;2022-07-24T00:43:06;6.13;;;3.85;;
68993;SDS011;56054;50.968;5.816;2022-07-24T00:46:39;6.97;;;3.85;;
68993;SDS011;56054;50.968;5.816;2022-07-24T00:50:04;6.25;;;3.65;;
68993;SDS011;56054;50.968;5.816;2022-07-24T00:53:18;6.45;;;4.03;;
68993;SDS011;56054;50.968;5.816;2022-07-24T00:56:51;7.53;;;4.03;;
68993;SDS011;56054;50.968;5.816;2022-07-24T01:00:04;4.82;;;3.70;;
68993;SDS011;56054;50.968;5.816;2022-07-24T01:03:16;6.13;;;3.88;;
68993;SDS011;56054;50.968;5.816;2022-07-24T01:06:23;6.82;;;4.35;;
68993;SDS011;56054;50.968;5.816;2022-07-24T01:09:34;7.32;;;4.28;;
68993;SDS011;56054;50.968;5.816;2022-07-24T01:12:41;6.90;;;3.97;;
68993;SDS011;56054;50.968;5.816;2022-07-24T01:16:14;9.40;;;4.93;;
68993;SDS011;56054;50.968;5.816;2022-07-24T01:19:28;8.13;;;4.60;;
68993;SDS011;56054;50.968;5.816;2022-07-24T01:22:35;9.38;;;4.35;;
68993;SDS011;56054;50.968;5.816;2022-07-24T01:25:43;5.57;;;4.25;;
68993;SDS011;56054;50.968;5.816;2022-07-24T01:29:03;6.63;;;4.00;;
68993;SDS011;56054;50.968;5.816;2022-07-24T01:32:10;13.32;;;4.40;;
68993;SDS011;56054;50.968;5.816;2022-07-24T01:35:32;7.78;;;4.38;;
68993;SDS011;56054;50.968;5.816;2022-07-24T01:38:44;7.13;;;3.80;;
68993;SDS011;56054;50.968;5.816;2022-07-24T01:45:39;7.00;;;4.40;;
68993;SDS011;56054;50.968;5.816;2022-07-24T01:48:49;7.97;;;3.75;;
68993;SDS011;56054;50.968;5.816;2022-07-24T01:51:58;6.07;;;4.35;;
68993;SDS011;56054;50.968;5.816;2022-07-24T01:55:05;6.30;;;4.63;;
68993;SDS011;56054;50.968;5.816;2022-07-24T01:58:13;5.90;;;3.50;;
68993;SDS011;56054;50.968;5.816;2022-07-24T02:01:20;5.32;;;4.05;;
68993;SDS011;56054;50.968;5.816;2022-07-24T02:04:27;8.45;;;4.72;;
68993;SDS011;56054;50.968;5.816;2022-07-24T02:07:54;7.75;;;4.35;;
68993;SDS011;56054;50.968;5.816;2022-07-24T02:11:14;5.88;;;4.15;;
68993;SDS011;56054;50.968;5.816;2022-07-24T02:14:21;8.75;;;4.55;;
68993;SDS011;56054;50.968;5.816;2022-07-24T02:17:38;9.35;;;4.80;;
68993;SDS011;56054;50.968;5.816;2022-07-24T02:20:49;8.60;;;4.93;;
68993;SDS011;56054;50.968;5.816;2022-07-24T02:24:00;8.25;;;4.30;;
68993;SDS011;56054;50.968;5.816;2022-07-24T02:27:14;7.40;;;4.43;;
68993;SDS011;56054;50.968;5.816;2022-07-24T02:30:22;7.18;;;4.60;;
68993;SDS011;56054;50.968;5.816;2022-07-24T02:33:39;10.90;;;4.72;;
68993;SDS011;56054;50.968;5.816;2022-07-24T02:36:58;10.40;;;4.68;;
68993;SDS011;56054;50.968;5.816;2022-07-24T02:40:08;7.72;;;4.47;;
68993;SDS011;56054;50.968;5.816;2022-07-24T02:44:03;6.22;;;4.38;;
68993;SDS011;56054;50.968;5.816;2022-07-24T02:47:10;8.52;;;5.05;;
68993;SDS011;56054;50.968;5.816;2022-07-24T02:50:38;7.53;;;4.85;;
68993;SDS011;56054;50.968;5.816;2022-07-24T02:53:48;10.70;;;5.38;;
68993;SDS011;56054;50.968;5.816;2022-07-24T02:56:55;7.85;;;5.15;;
68993;SDS011;56054;50.968;5.816;2022-07-24T03:00:03;9.85;;;6.30;;
68993;SDS011;56054;50.968;5.816;2022-07-24T03:03:13;9.68;;;5.43;;
68993;SDS011;56054;50.968;5.816;2022-07-24T03:06:23;7.50;;;5.15;;
68993;SDS011;56054;50.968;5.816;2022-07-24T03:09:54;9.35;;;5.20;;
68993;SDS011;56054;50.968;5.816;2022-07-24T03:13:01;12.00;;;5.57;;
68993;SDS011;56054;50.968;5.816;2022-07-24T03:16:09;8.57;;;5.47;;
68993;SDS011;56054;50.968;5.816;2022-07-24T03:19:19;9.63;;;5.07;;
68993;SDS011;56054;50.968;5.816;2022-07-24T03:22:40;7.78;;;5.28;;
68993;SDS011;56054;50.968;5.816;2022-07-24T03:25:48;9.73;;;6.53;;
68993;SDS011;56054;50.968;5.816;2022-07-24T03:28:55;7.88;;;5.85;;
68993;SDS011;56054;50.968;5.816;2022-07-24T03:32:02;7.90;;;5.50;;
68993;SDS011;56054;50.968;5.816;2022-07-24T03:35:15;9.77;;;5.65;;
68993;SDS011;56054;50.968;5.816;2022-07-24T03:38:29;12.77;;;5.97;;
68993;SDS011;56054;50.968;5.816;2022-07-24T03:41:43;11.32;;;5.75;;
68993;SDS011;56054;50.968;5.816;2022-07-24T03:44:53;10.13;;;7.47;;
68993;SDS011;56054;50.968;5.816;2022-07-24T03:48:09;14.45;;;7.07;;
68993;SDS011;56054;50.968;5.816;2022-07-24T03:51:25;9.43;;;7.22;;
68993;SDS011;56054;50.968;5.816;2022-07-24T03:54:50;16.17;;;8.20;;
68993;SDS011;56054;50.968;5.816;2022-07-24T03:57:58;12.98;;;8.45;;
68993;SDS011;56054;50.968;5.816;2022-07-24T04:01:14;16.92;;;10.02;;
68993;SDS011;56054;50.968;5.816;2022-07-24T04:04:24;14.65;;;10.20;;
68993;SDS011;56054;50.968;5.816;2022-07-24T04:07:33;18.88;;;11.95;;
68993;SDS011;56054;50.968;5.816;2022-07-24T04:10:45;20.48;;;13.32;;
68993;SDS011;56054;50.968;5.816;2022-07-24T04:13:53;16.10;;;12.07;;
68993;SDS011;56054;50.968;5.816;2022-07-24T04:17:10;20.55;;;14.30;;
68993;SDS011;56054;50.968;5.816;2022-07-24T04:20:18;21.73;;;14.65;;
68993;SDS011;56054;50.968;5.816;2022-07-24T04:23:25;24.73;;;16.00;;
68993;SDS011;56054;50.968;5.816;2022-07-24T04:26:33;22.15;;;16.08;;
68993;SDS011;56054;50.968;5.816;2022-07-24T04:29:40;26.77;;;17.05;;
68993;SDS011;56054;50.968;5.816;2022-07-24T04:32:47;30.88;;;18.52;;
68993;SDS011;56054;50.968;5.816;2022-07-24T04:35:54;30.55;;;19.90;;
68993;SDS011;56054;50.968;5.816;2022-07-24T04:39:01;30.05;;;20.17;;
68993;SDS011;56054;50.968;5.816;2022-07-24T04:42:08;28.42;;;19.85;;
68993;SDS011;56054;50.968;5.816;2022-07-24T04:45:19;38.72;;;21.42;;
68993;SDS011;56054;50.968;5.816;2022-07-24T04:48:26;36.05;;;20.23;;
68993;SDS011;56054;50.968;5.816;2022-07-24T04:51:45;29.80;;;19.27;;
68993;SDS011;56054;50.968;5.816;2022-07-24T04:54:52;25.85;;;17.55;;
68993;SDS011;56054;50.968;5.816;2022-07-24T04:58:08;22.83;;;16.33;;
68993;SDS011;56054;50.968;5.816;2022-07-24T05:01:15;30.83;;;17.75;;
68993;SDS011;56054;50.968;5.816;2022-07-24T05:04:22;31.13;;;17.42;;
68993;SDS011;56054;50.968;5.816;2022-07-24T05:07:29;28.02;;;16.08;;
68993;SDS011;56054;50.968;5.816;2022-07-24T05:10:36;34.75;;;17.23;;
68993;SDS011;56054;50.968;5.816;2022-07-24T05:14:09;27.48;;;17.23;;
68993;SDS011;56054;50.968;5.816;2022-07-24T05:17:16;30.65;;;18.52;;
68993;SDS011;56054;50.968;5.816;2022-07-24T05:20:49;31.35;;;17.77;;
68993;SDS011;56054;50.968;5.816;2022-07-24T05:23:55;32.65;;;19.42;;
68993;SDS011;56054;50.968;5.816;2022-07-24T05:27:02;35.22;;;20.75;;
68993;SDS011;56054;50.968;5.816;2022-07-24T05:30:09;37.05;;;21.00;;
68993;SDS011;56054;50.968;5.816;2022-07-24T05:33:17;37.15;;;21.02;;
68993;SDS011;56054;50.968;5.816;2022-07-24T05:36:24;30.38;;;19.50;;
68993;SDS011;56054;50.968;5.816;2022-07-24T05:39:32;31.67;;;18.67;;
68993;SDS011;56054;50.968;5.816;2022-07-24T05:42:39;29.95;;;18.30;;
68993;SDS011;56054;50.968;5.816;2022-07-24T05:45:48;34.60;;;18.77;;
68993;SDS011;56054;50.968;5.816;2022-07-24T05:48:55;30.08;;;19.27;;
68993;SDS011;56054;50.968;5.816;2022-07-24T05:52:05;29.55;;;18.63;;
68993;SDS011;56054;50.968;5.816;2022-07-24T05:55:12;30.63;;;18.10;;
68993;SDS011;56054;50.968;5.816;2022-07-24T05:58:19;29.38;;;18.90;;
68993;SDS011;56054;50.968;5.816;2022-07-24T06:01:27;30.08;;;19.23;;
68993;SDS011;56054;50.968;5.816;2022-07-24T06:04:34;34.35;;;18.60;;
68993;SDS011;56054;50.968;5.816;2022-07-24T06:07:41;31.10;;;17.60;;
68993;SDS011;56054;50.968;5.816;2022-07-24T06:10:49;28.17;;;15.98;;
68993;SDS011;56054;50.968;5.816;2022-07-24T06:13:58;31.33;;;16.67;;
68993;SDS011;56054;50.968;5.816;2022-07-24T06:17:05;27.75;;;16.48;;
68993;SDS011;56054;50.968;5.816;2022-07-24T06:20:21;31.60;;;15.32;;
68993;SDS011;56054;50.968;5.816;2022-07-24T06:23:28;28.42;;;14.93;;
68993;SDS011;56054;50.968;5.816;2022-07-24T06:26:35;25.00;;;15.52;;
68993;SDS011;56054;50.968;5.816;2022-07-24T06:29:42;28.92;;;17.05;;
68993;SDS011;56054;50.968;5.816;2022-07-24T06:32:58;27.55;;;16.45;;
68993;SDS011;56054;50.968;5.816;2022-07-24T06:36:06;26.38;;;15.85;;
68993;SDS011;56054;50.968;5.816;2022-07-24T06:39:18;30.08;;;15.93;;
68993;SDS011;56054;50.968;5.816;2022-07-24T06:42:32;26.85;;;16.63;;
68993;SDS011;56054;50.968;5.816;2022-07-24T06:45:39;23.80;;;16.23;;
68993;SDS011;56054;50.968;5.816;2022-07-24T06:48:46;24.60;;;15.05;;
68993;SDS011;56054;50.968;5.816;2022-07-24T06:52:19;26.10;;;15.50;;
68993;SDS011;56054;50.968;5.816;2022-07-24T06:55:26;23.73;;;14.60;;
68993;SDS011;56054;50.968;5.816;2022-07-24T06:58:33;25.90;;;16.27;;
68993;SDS011;56054;50.968;5.816;2022-07-24T07:01:40;23.67;;;15.70;;
68993;SDS011;56054;50.968;5.816;2022-07-24T07:04:47;29.65;;;16.50;;
68993;SDS011;56054;50.968;5.816;2022-07-24T07:07:55;30.98;;;17.50;;
68993;SDS011;56054;50.968;5.816;2022-07-24T07:11:05;30.52;;;17.23;;
68993;SDS011;56054;50.968;5.816;2022-07-24T07:14:18;26.08;;;16.02;;
68993;SDS011;56054;50.968;5.816;2022-07-24T07:17:31;27.55;;;15.73;;
68993;SDS011;56054;50.968;5.816;2022-07-24T07:20:38;23.10;;;15.90;;
68993;SDS011;56054;50.968;5.816;2022-07-24T07:23:50;23.35;;;14.80;;
68993;SDS011;56054;50.968;5.816;2022-07-24T07:27:00;27.92;;;16.38;;
68993;SDS011;56054;50.968;5.816;2022-07-24T07:30:10;24.92;;;15.88;;
68993;SDS011;56054;50.968;5.816;2022-07-24T07:37:46;28.13;;;16.42;;
68993;SDS011;56054;50.968;5.816;2022-07-24T07:41:29;22.95;;;15.75;;
68993;SDS011;56054;50.968;5.816;2022-07-24T07:44:36;21.35;;;12.55;;
68993;SDS011;56054;50.968;5.816;2022-07-24T07:47:43;23.25;;;15.80;;
68993;SDS011;56054;50.968;5.816;2022-07-24T07:50:50;26.58;;;15.02;;
68993;SDS011;56054;50.968;5.816;2022-07-24T07:53:57;24.50;;;13.95;;
68993;SDS011;56054;50.968;5.816;2022-07-24T07:57:09;22.55;;;13.27;;
68993;SDS011;56054;50.968;5.816;2022-07-24T08:00:19;22.20;;;12.85;;
68993;SDS011;56054;50.968;5.816;2022-07-24T08:03:26;20.38;;;12.88;;
68993;SDS011;56054;50.968;5.816;2022-07-24T08:07:03;17.58;;;12.13;;
68993;SDS011;56054;50.968;5.816;2022-07-24T08:10:10;20.75;;;12.85;;
68993;SDS011;56054;50.968;5.816;2022-07-24T08:13:18;16.92;;;10.90;;
68993;SDS011;56054;50.968;5.816;2022-07-24T08:16:34;14.68;;;10.38;;
68993;SDS011;56054;50.968;5.816;2022-07-24T08:19:41;14.82;;;9.50;;
68993;SDS011;56054;50.968;5.816;2022-07-24T08:22:48;13.95;;;8.20;;
68993;SDS011;56054;50.968;5.816;2022-07-24T08:26:07;16.17;;;8.23;;
68993;SDS011;56054;50.968;5.816;2022-07-24T08:29:18;16.00;;;9.10;;
68993;SDS011;56054;50.968;5.816;2022-07-24T08:32:26;11.85;;;6.63;;
68993;SDS011;56054;50.968;5.816;2022-07-24T08:35:33;15.25;;;7.25;;
68993;SDS011;56054;50.968;5.816;2022-07-24T08:39:01;10.80;;;6.15;;
68993;SDS011;56054;50.968;5.816;2022-07-24T08:42:07;9.05;;;6.47;;
68993;SDS011;56054;50.968;5.816;2022-07-24T08:45:23;8.93;;;5.95;;
68993;SDS011;56054;50.968;5.816;2022-07-24T08:48:45;13.93;;;6.45;;
68993;SDS011;56054;50.968;5.816;2022-07-24T08:51:59;9.48;;;5.70;;
68993;SDS011;56054;50.968;5.816;2022-07-24T08:55:08;10.48;;;5.68;;
68993;SDS011;56054;50.968;5.816;2022-07-24T08:58:18;10.32;;;5.70;;
68993;SDS011;56054;50.968;5.816;2022-07-24T09:01:29;11.10;;;6.22;;
68993;SDS011;56054;50.968;5.816;2022-07-24T09:04:37;9.52;;;6.10;;
68993;SDS011;56054;50.968;5.816;2022-07-24T09:08:09;16.98;;;6.93;;
68993;SDS011;56054;50.968;5.816;2022-07-24T09:11:25;10.18;;;6.57;;
68993;SDS011;56054;50.968;5.816;2022-07-24T09:14:33;14.52;;;6.85;;
68993;SDS011;56054;50.968;5.816;2022-07-24T09:17:51;15.88;;;6.47;;
68993;SDS011;56054;50.968;5.816;2022-07-24T09:21:23;8.82;;;6.00;;
68993;SDS011;56054;50.968;5.816;2022-07-24T09:24:54;14.20;;;6.03;;
68993;SDS011;56054;50.968;5.816;2022-07-24T09:29:07;9.85;;;6.20;;
68993;SDS011;56054;50.968;5.816;2022-07-24T09:36:01;9.65;;;6.55;;
68993;SDS011;56054;50.968;5.816;2022-07-24T09:39:22;11.30;;;5.85;;
68993;SDS011;56054;50.968;5.816;2022-07-24T09:42:34;10.27;;;5.22;;
68993;SDS011;56054;50.968;5.816;2022-07-24T09:46:13;13.23;;;4.80;;
68993;SDS011;56054;50.968;5.816;2022-07-24T09:49:28;10.90;;;5.30;;
68993;SDS011;56054;50.968;5.816;2022-07-24T09:53:13;10.45;;;5.80;;
68993;SDS011;56054;50.968;5.816;2022-07-24T09:56:34;8.13;;;5.25;;
68993;SDS011;56054;50.968;5.816;2022-07-24T10:00:13;11.05;;;4.85;;
68993;SDS011;56054;50.968;5.816;2022-07-24T10:03:25;8.63;;;4.32;;
68993;SDS011;56054;50.968;5.816;2022-07-24T10:07:12;7.00;;;4.22;;
68993;SDS011;56054;50.968;5.816;2022-07-24T10:10:22;8.30;;;4.30;;
68993;SDS011;56054;50.968;5.816;2022-07-24T10:14:03;7.57;;;3.70;;
68993;SDS011;56054;50.968;5.816;2022-07-24T10:17:11;8.75;;;3.78;;
68993;SDS011;56054;50.968;5.816;2022-07-24T10:24:21;8.95;;;4.00;;
68993;SDS011;56054;50.968;5.816;2022-07-24T10:32:16;9.35;;;4.05;;
68993;SDS011;56054;50.968;5.816;2022-07-24T10:43:38;7.70;;;3.58;;
68993;SDS011;56054;50.968;5.816;2022-07-24T10:54:24;4.65;;;2.75;;
68993;SDS011;56054;50.968;5.816;2022-07-24T10:57:47;4.90;;;3.00;;
68993;SDS011;56054;50.968;5.816;2022-07-24T11:01:34;5.93;;;2.97;;
68993;SDS011;56054;50.968;5.816;2022-07-24T11:12:29;4.47;;;2.83;;
68993;SDS011;56054;50.968;5.816;2022-07-24T11:19:36;5.28;;;2.63;;
68993;SDS011;56054;50.968;5.816;2022-07-24T11:26:36;3.80;;;2.70;;
68993;SDS011;56054;50.968;5.816;2022-07-24T11:29:51;3.85;;;2.53;;
68993;SDS011;56054;50.968;5.816;2022-07-24T11:33:11;4.22;;;2.97;;
68993;SDS011;56054;50.968;5.816;2022-07-24T11:36:24;3.65;;;2.42;;
68993;SDS011;56054;50.968;5.816;2022-07-24T11:43:13;5.70;;;3.03;;
68993;SDS011;56054;50.968;5.816;2022-07-24T11:46:46;4.47;;;2.40;;
68993;SDS011;56054;50.968;5.816;2022-07-24T11:50:34;6.50;;;2.35;;
68993;SDS011;56054;50.968;5.816;2022-07-24T11:53:51;9.95;;;2.30;;
68993;SDS011;56054;50.968;5.816;2022-07-24T11:57:22;3.42;;;2.70;;
68993;SDS011;56054;50.968;5.816;2022-07-24T12:00:37;5.07;;;2.17;;
68993;SDS011;56054;50.968;5.816;2022-07-24T12:04:43;4.40;;;2.70;;
68993;SDS011;56054;50.968;5.816;2022-07-24T12:09:06;4.78;;;2.42;;
68993;SDS011;56054;50.968;5.816;2022-07-24T12:12:40;4.53;;;3.05;;
68993;SDS011;56054;50.968;5.816;2022-07-24T12:16:54;4.63;;;2.88;;
68993;SDS011;56054;50.968;5.816;2022-07-24T12:20:14;5.63;;;2.40;;
68993;SDS011;56054;50.968;5.816;2022-07-24T12:24:09;5.53;;;2.72;;
68993;SDS011;56054;50.968;5.816;2022-07-24T12:27:39;3.58;;;2.53;;
68993;SDS011;56054;50.968;5.816;2022-07-24T12:30:47;11.55;;;2.97;;
68993;SDS011;56054;50.968;5.816;2022-07-24T12:34:05;5.15;;;2.75;;
68993;SDS011;56054;50.968;5.816;2022-07-24T12:37:23;4.97;;;2.67;;
68993;SDS011;56054;50.968;5.816;2022-07-24T12:40:44;3.70;;;2.80;;
68993;SDS011;56054;50.968;5.816;2022-07-24T12:47:06;4.20;;;2.75;;
68993;SDS011;56054;50.968;5.816;2022-07-24T12:50:19;4.72;;;3.00;;
68993;SDS011;56054;50.968;5.816;2022-07-24T12:53:30;5.60;;;3.22;;
68993;SDS011;56054;50.968;5.816;2022-07-24T13:13:07;4.82;;;3.13;;
68993;SDS011;56054;50.968;5.816;2022-07-24T13:16:20;8.90;;;2.80;;
68993;SDS011;56054;50.968;5.816;2022-07-24T13:23:14;7.22;;;3.00;;
68993;SDS011;56054;50.968;5.816;2022-07-24T13:26:30;5.00;;;3.05;;
68993;SDS011;56054;50.968;5.816;2022-07-24T13:29:43;4.65;;;3.03;;
68993;SDS011;56054;50.968;5.816;2022-07-24T13:32:59;7.00;;;3.47;;
68993;SDS011;56054;50.968;5.816;2022-07-24T13:36:25;8.82;;;3.40;;
68993;SDS011;56054;50.968;5.816;2022-07-24T13:39:51;6.35;;;3.78;;
68993;SDS011;56054;50.968;5.816;2022-07-24T13:42:57;3.95;;;3.42;;
68993;SDS011;56054;50.968;5.816;2022-07-24T13:46:04;4.03;;;3.25;;
68993;SDS011;56054;50.968;5.816;2022-07-24T13:49:20;7.97;;;3.10;;
68993;SDS011;56054;50.968;5.816;2022-07-24T13:52:44;6.95;;;3.65;;
68993;SDS011;56054;50.968;5.816;2022-07-24T13:56:20;7.10;;;3.30;;
68993;SDS011;56054;50.968;5.816;2022-07-24T13:59:44;5.00;;;3.20;;
68993;SDS011;56054;50.968;5.816;2022-07-24T14:02:55;6.00;;;3.65;;
68993;SDS011;56054;50.968;5.816;2022-07-24T14:06:14;6.20;;;3.30;;
68993;SDS011;56054;50.968;5.816;2022-07-24T14:12:56;5.13;;;3.08;;
68993;SDS011;56054;50.968;5.816;2022-07-24T14:16:44;6.63;;;3.35;;
68993;SDS011;56054;50.968;5.816;2022-07-24T14:20:32;3.92;;;3.13;;
68993;SDS011;56054;50.968;5.816;2022-07-24T14:24:05;6.72;;;3.67;;
68993;SDS011;56054;50.968;5.816;2022-07-24T14:27:12;8.55;;;3.92;;
68993;SDS011;56054;50.968;5.816;2022-07-24T14:30:28;5.20;;;3.65;;
68993;SDS011;56054;50.968;5.816;2022-07-24T14:33:35;4.90;;;3.63;;
68993;SDS011;56054;50.968;5.816;2022-07-24T14:36:44;9.98;;;3.88;;
68993;SDS011;56054;50.968;5.816;2022-07-24T14:39:51;6.45;;;3.53;;
68993;SDS011;56054;50.968;5.816;2022-07-24T14:43:04;4.88;;;3.17;;
68993;SDS011;56054;50.968;5.816;2022-07-24T14:46:11;7.18;;;3.40;;
68993;SDS011;56054;50.968;5.816;2022-07-24T14:49:23;7.78;;;3.95;;
68993;SDS011;56054;50.968;5.816;2022-07-24T14:52:35;5.15;;;3.60;;
68993;SDS011;56054;50.968;5.816;2022-07-24T14:55:42;6.45;;;3.75;;
68993;SDS011;56054;50.968;5.816;2022-07-24T14:58:49;5.68;;;3.38;;
68993;SDS011;56054;50.968;5.816;2022-07-24T15:01:56;7.68;;;3.75;;
68993;SDS011;56054;50.968;5.816;2022-07-24T15:05:04;4.82;;;3.40;;
68993;SDS011;56054;50.968;5.816;2022-07-24T15:08:14;10.23;;;3.75;;
68993;SDS011;56054;50.968;5.816;2022-07-24T15:11:21;6.25;;;3.97;;
68993;SDS011;56054;50.968;5.816;2022-07-24T15:14:29;4.70;;;3.35;;
68993;SDS011;56054;50.968;5.816;2022-07-24T15:17:44;7.13;;;3.85;;
68993;SDS011;56054;50.968;5.816;2022-07-24T15:20:54;5.40;;;3.47;;
68993;SDS011;56054;50.968;5.816;2022-07-24T15:24:01;4.68;;;3.50;;
68993;SDS011;56054;50.968;5.816;2022-07-24T15:27:35;4.10;;;3.20;;
68993;SDS011;56054;50.968;5.816;2022-07-24T15:30:44;7.18;;;3.00;;
68993;SDS011;56054;50.968;5.816;2022-07-24T15:33:50;5.35;;;3.25;;
68993;SDS011;56054;50.968;5.816;2022-07-24T15:36:57;6.32;;;3.35;;
68993;SDS011;56054;50.968;5.816;2022-07-24T15:40:04;8.57;;;3.90;;
68993;SDS011;56054;50.968;5.816;2022-07-24T15:43:12;3.85;;;2.92;;
68993;SDS011;56054;50.968;5.816;2022-07-24T15:46:33;6.32;;;3.15;;
68993;SDS011;56054;50.968;5.816;2022-07-24T15:49:40;5.15;;;3.47;;
68993;SDS011;56054;50.968;5.816;2022-07-24T15:52:47;5.32;;;3.30;;
68993;SDS011;56054;50.968;5.816;2022-07-24T15:56:20;6.60;;;3.60;;
68993;SDS011;56054;50.968;5.816;2022-07-24T15:59:35;8.60;;;3.50;;
68993;SDS011;56054;50.968;5.816;2022-07-24T16:02:54;5.28;;;3.40;;
68993;SDS011;56054;50.968;5.816;2022-07-24T16:06:01;3.65;;;2.92;;
68993;SDS011;56054;50.968;5.816;2022-07-24T16:09:09;6.72;;;3.63;;
68993;SDS011;56054;50.968;5.816;2022-07-24T16:12:54;5.75;;;3.22;;
68993;SDS011;56054;50.968;5.816;2022-07-24T16:16:45;6.05;;;3.15;;
68993;SDS011;56054;50.968;5.816;2022-07-24T16:19:54;5.05;;;3.55;;
68993;SDS011;56054;50.968;5.816;2022-07-24T16:23:05;5.40;;;3.40;;
68993;SDS011;56054;50.968;5.816;2022-07-24T16:26:14;5.15;;;3.08;;
68993;SDS011;56054;50.968;5.816;2022-07-24T16:29:21;6.90;;;3.40;;
68993;SDS011;56054;50.968;5.816;2022-07-24T16:32:38;8.60;;;3.53;;
68993;SDS011;56054;50.968;5.816;2022-07-24T16:35:45;5.05;;;3.35;;
68993;SDS011;56054;50.968;5.816;2022-07-24T16:38:54;7.43;;;3.88;;
68993;SDS011;56054;50.968;5.816;2022-07-24T16:42:05;5.15;;;3.08;;
68993;SDS011;56054;50.968;5.816;2022-07-24T16:45:14;7.47;;;3.80;;
68993;SDS011;56054;50.968;5.816;2022-07-24T16:48:24;4.72;;;3.50;;
68993;SDS011;56054;50.968;5.816;2022-07-24T16:51:58;5.35;;;3.25;;
68993;SDS011;56054;50.968;5.816;2022-07-24T16:55:10;6.05;;;3.92;;
68993;SDS011;56054;50.968;5.816;2022-07-24T16:58:52;6.85;;;3.47;;
68993;SDS011;56054;50.968;5.816;2022-07-24T17:01:59;7.68;;;3.65;;
68993;SDS011;56054;50.968;5.816;2022-07-24T17:05:13;5.53;;;3.67;;
68993;SDS011;56054;50.968;5.816;2022-07-24T17:09:10;7.13;;;3.22;;
68993;SDS011;56054;50.968;5.816;2022-07-24T17:12:43;5.47;;;3.22;;
68993;SDS011;56054;50.968;5.816;2022-07-24T17:15:59;6.25;;;3.60;;
68993;SDS011;56054;50.968;5.816;2022-07-24T17:19:23;8.07;;;4.05;;
68993;SDS011;56054;50.968;5.816;2022-07-24T17:22:33;4.72;;;3.92;;
68993;SDS011;56054;50.968;5.816;2022-07-24T17:25:42;7.03;;;4.45;;
68993;SDS011;56054;50.968;5.816;2022-07-24T17:32:25;4.50;;;3.63;;
68993;SDS011;56054;50.968;5.816;2022-07-24T17:35:33;13.88;;;3.83;;
68993;SDS011;56054;50.968;5.816;2022-07-24T17:38:44;4.60;;;3.55;;
68993;SDS011;56054;50.968;5.816;2022-07-24T17:42:35;7.57;;;3.92;;
68993;SDS011;56054;50.968;5.816;2022-07-24T17:45:41;4.20;;;3.25;;
68993;SDS011;56054;50.968;5.816;2022-07-24T17:49:00;6.13;;;3.60;;
68993;SDS011;56054;50.968;5.816;2022-07-24T17:56:01;6.93;;;3.85;;
68993;SDS011;56054;50.968;5.816;2022-07-24T17:59:19;5.45;;;3.75;;
68993;SDS011;56054;50.968;5.816;2022-07-24T18:02:54;5.53;;;3.70;;
68993;SDS011;56054;50.968;5.816;2022-07-24T18:06:10;9.10;;;4.00;;
68993;SDS011;56054;50.968;5.816;2022-07-24T18:09:17;5.15;;;3.67;;
68993;SDS011;56054;50.968;5.816;2022-07-24T18:16:16;6.78;;;3.88;;
68993;SDS011;56054;50.968;5.816;2022-07-24T18:23:35;6.05;;;3.83;;
68993;SDS011;56054;50.968;5.816;2022-07-24T18:26:45;6.25;;;3.90;;
68993;SDS011;56054;50.968;5.816;2022-07-24T18:29:55;6.85;;;4.00;;
68993;SDS011;56054;50.968;5.816;2022-07-24T18:33:34;5.40;;;4.28;;
68993;SDS011;56054;50.968;5.816;2022-07-24T18:36:44;9.40;;;3.75;;
68993;SDS011;56054;50.968;5.816;2022-07-24T18:44:34;5.93;;;3.80;;
68993;SDS011;56054;50.968;5.816;2022-07-24T18:48:35;4.60;;;3.80;;
68993;SDS011;56054;50.968;5.816;2022-07-24T18:56:09;4.43;;;3.60;;
68993;SDS011;56054;50.968;5.816;2022-07-24T18:59:45;4.68;;;3.80;;
68993;SDS011;56054;50.968;5.816;2022-07-24T19:03:44;7.70;;;3.63;;
68993;SDS011;56054;50.968;5.816;2022-07-24T19:06:57;6.85;;;4.15;;
68993;SDS011;56054;50.968;5.816;2022-07-24T19:10:06;4.75;;;3.92;;
68993;SDS011;56054;50.968;5.816;2022-07-24T19:13:17;8.63;;;4.20;;
68993;SDS011;56054;50.968;5.816;2022-07-24T19:16:44;6.47;;;4.00;;
68993;SDS011;56054;50.968;5.816;2022-07-24T19:19:55;10.48;;;5.45;;
68993;SDS011;56054;50.968;5.816;2022-07-24T19:23:06;10.35;;;5.82;;
68993;SDS011;56054;50.968;5.816;2022-07-24T19:26:14;6.70;;;4.28;;
68993;SDS011;56054;50.968;5.816;2022-07-24T19:29:26;6.05;;;4.28;;
68993;SDS011;56054;50.968;5.816;2022-07-24T19:32:43;4.95;;;4.20;;
68993;SDS011;56054;50.968;5.816;2022-07-24T19:36:24;6.68;;;4.25;;
68993;SDS011;56054;50.968;5.816;2022-07-24T19:39:48;7.47;;;4.65;;
68993;SDS011;56054;50.968;5.816;2022-07-24T19:43:22;7.55;;;4.97;;
68993;SDS011;56054;50.968;5.816;2022-07-24T19:46:33;10.35;;;5.55;;
68993;SDS011;56054;50.968;5.816;2022-07-24T19:49:44;9.98;;;4.40;;
68993;SDS011;56054;50.968;5.816;2022-07-24T19:53:05;11.00;;;5.35;;
68993;SDS011;56054;50.968;5.816;2022-07-24T19:56:17;12.55;;;4.85;;
68993;SDS011;56054;50.968;5.816;2022-07-24T19:59:26;6.07;;;4.93;;
68993;SDS011;56054;50.968;5.816;2022-07-24T20:02:46;9.40;;;5.40;;
68993;SDS011;56054;50.968;5.816;2022-07-24T20:05:55;5.90;;;4.57;;
68993;SDS011;56054;50.968;5.816;2022-07-24T20:09:12;6.75;;;4.57;;
68993;SDS011;56054;50.968;5.816;2022-07-24T20:12:21;6.90;;;5.25;;
68993;SDS011;56054;50.968;5.816;2022-07-24T20:15:39;7.30;;;4.63;;
68993;SDS011;56054;50.968;5.816;2022-07-24T20:18:52;9.27;;;5.72;;
68993;SDS011;56054;50.968;5.816;2022-07-24T20:22:07;8.40;;;5.63;;
68993;SDS011;56054;50.968;5.816;2022-07-24T20:25:15;8.07;;;5.22;;
68993;SDS011;56054;50.968;5.816;2022-07-24T20:28:24;9.45;;;4.95;;
68993;SDS011;56054;50.968;5.816;2022-07-24T20:31:32;8.57;;;5.40;;
68993;SDS011;56054;50.968;5.816;2022-07-24T20:34:43;8.45;;;4.70;;
68993;SDS011;56054;50.968;5.816;2022-07-24T20:38:01;8.75;;;5.63;;
68993;SDS011;56054;50.968;5.816;2022-07-24T20:41:11;7.10;;;4.93;;
68993;SDS011;56054;50.968;5.816;2022-07-24T20:44:20;6.93;;;5.60;;
68993;SDS011;56054;50.968;5.816;2022-07-24T20:47:34;9.80;;;5.22;;
68993;SDS011;56054;50.968;5.816;2022-07-24T20:50:52;6.82;;;5.18;;
68993;SDS011;56054;50.968;5.816;2022-07-24T20:54:00;7.53;;;5.80;;
68993;SDS011;56054;50.968;5.816;2022-07-24T20:57:18;8.00;;;5.88;;
68993;SDS011;56054;50.968;5.816;2022-07-24T21:00:33;6.93;;;5.63;;
68993;SDS011;56054;50.968;5.816;2022-07-24T21:04:05;6.53;;;4.90;;
68993;SDS011;56054;50.968;5.816;2022-07-24T21:07:15;9.15;;;4.82;;
68993;SDS011;56054;50.968;5.816;2022-07-24T21:10:27;7.97;;;5.20;;
68993;SDS011;56054;50.968;5.816;2022-07-24T21:13:34;6.60;;;5.03;;
68993;SDS011;56054;50.968;5.816;2022-07-24T21:16:42;8.45;;;4.43;;
68993;SDS011;56054;50.968;5.816;2022-07-24T21:19:50;7.47;;;5.25;;